Dauntless Aviation
Airports Europe United Kingdom
EGLL
LHR

London Heathrow Airport

London, UNITED KINGDOM

Airport Info
Suggest Updated Information for this Airport

Location

Latitude / Longitude: 51°28'14"N / 0°27'42"W
  51°28.236'N / 0°27.714'W
  51.4706 / -0.4619

Nearby radio navigation aids

LON LONDON VOR/DME on field.

Runway Information

Runway 09L/27R

Dimensions: 12798 x 164 ft.
Surface: ASP
 
Runway 09L
Runway 27R
Latitude: 51.4775 51.477675
Longitude: -0.485014 -0.433261
Elevation: 79 ft. 79 ft.
Runway true heading: 87.3 267.3
 

Runway 09R/27L

Dimensions: 12008 x 164 ft.
Surface: ASP
 
Runway 09R
Runway 27L
Latitude: 51.464792 51.464953
Longitude: -0.482336 -0.434078
Elevation: 75 ft. 75 ft.
Runway true heading: 87.3 267.3
 

Instrument Procedures

  Aerodrome Chart
  Aircraft Ground Movement/All Taxiways Chart
  Aerodrome Chart A380 Ground Movement
  Aircraft Ground Movement/Parking/Docking - Terminal 5 Chart
  Aircraft Ground Movement/Parking/Docking - Terminal 3 Chart
  Aircraft Ground Movement/Parking/Docking - Terminal 1 and 2 Chart
  Aircraft Ground Movement/Remote De-Icing Areas Location Chart
  Ground Movement Chart - Holding Areas for Runway 09L
  Ground Movement Chart - Holding Areas for Runway 09L
  Ground Movement Chart - Holding Areas for Runway 09R
  Aircraft Ground Movement/Parking/Docking - Terminal 4 Chart
  Ground Movement Chart - Holding Areas for Runway 27R

STARs (Standard Terminal Arrivals)

  Standard Instrument Arrival Coding Tables - OTMET 1H ROXOG 1H OCK 1Z
  RNAV1 (DME/DME or GNSS) STAR - Instrument (STAR) FITBO 1H
  Standard Instrument Arrival Coding Tables - HAZEL 1H BEDEK 1H TOBID 1X BIG 1Z LAM 1Y
  Standard Instrument Arrival Coding Tables - ALESO 1H LAM 1X TANET 1Z FITBO 1H
  STAR - Instrument (STAR) ALESO 1H LAM 1X TANET 1Z
  RNAV5 (DME/DME or GNSS) STAR - Instrument (STAR) OCK 1Z
  STAR - Instrument (STAR) via BOVINGDON
  STAR - Instrument (STAR) via BOVVA (VOR BNN U/S)
  STAR - Instrument (STAR) via LAMBOURNE
  STAR - Instrument (STAR) BEDEK 1H TOBID 1X
  RNAV5 (DME/DME or GNSS) STAR - Instrument (STAR) HAZEL 1H
  RNAV5 (DME/DME or GNSS) STAR - Instrument (STAR) BIG 1Z LAM 1Y
  RNAV1 (DME/DME or GNSS) STAR - Instrument (STAR) OTMET 1H ROXOG 1H

IAPs (Instrument Approach Procedures)

  Initial Approach Procedures ILS Rwy 09L/R Without RADAR Control via CHT and EPM
  Initial Approach Procedures ILS Rwy 27L/R Without RADAR Control via CHT and EPM
  ILS/DME I-RR Rwy 27R
  LOC/DME I-RR Rwy 27R
  RNAV (GNSS) Z Rwy 27R
  ILS/DME I-AA Rwy 09L
  LOC/DME I-AA Rwy 09L
  RNAV (GNSS) Z Rwy 09L
  ILS/DME I-BB Rwy 09R
  LOC/DME I-BB Rwy 09R
  RNAV (GNSS) Z Rwy 09R
  ILS/DME I-LL Rwy 27L
  LOC/DME I-LL Rwy 27L
  RNAV (GNSS) Z Rwy 27L
  RNAV Hold Coding Tables - OCK BIG TIGER FITBO WCO BNN
  Initial Approach Procedures ILS Rwy 09L/R Without RADAR Control via BIG and OCK
  Initial Approach Procedures ILS Rwy 09L/R Without RADAR Control via BNN and LAM
  Initial Approach Procedures ILS Rwy 27L/R Without RADAR Control via BIG
  Initial Approach Procedures ILS Rwy 27L/R Without RADAR Control via OCK
  Initial Approach Procedures ILS Rwy 27L/R Without RADAR Control via BNN and LAM
  Aerodrome Information (Textual)
  Helicopter CROSSING Operations
  ATC Surveillance Minimum Altitude Chart
  Instrument Approach Procedure Coding Tables RNAV (GNSS) Z
  LONDON CTR Local FLYING and Entry/Exit Procedures
  Helicopter Routes in the LONDON CTR and LONDON/City CTR
  ATC Surveillance Minimum Altitude Chart

Departure Procedures

  SID - Instrument (SID) COMPTON 3F 3G 5J 4K
  SID - Instrument (SID) MAXIT 1F 1G MODMI 1J 1K
  SID - Instrument (SID) BROOKMANS PARK 7F 7G 6J 5K
  SID - Instrument (SID) UMLAT 1F 1G ULTIB 1J 1K
  SID - Instrument (SID) DET 2F 2G 1J 1K
  SID - Instrument (SID) GOGSI 2F 2G GASGU 2J 2K
  SID - Instrument (SID) MAYFIELD 3F 2G 2J 2K
Satellite photo at:
Airport distance calculator
From:
Weather Reports

METAR

EGLL

EGLL 251350Z AUTO 19010KT 9999 //////TCU 12/08 Q0996 NOSIG
EGWU
5.1nm N
EGWU 251350Z 20011KT 9999 FEW022 SCT220 12/08 Q0995 TEMPO 7000 SHRA SCT020CB RMK BLU TEMPO WHT
EGLF
16.0nm SW
EGLF 251350Z 21014KT 170V240 9999 -SHRA FEW018 FEW022TCU 11/08 Q0996
EGLC
19.2nm NE
EGLC 251350Z AUTO VRB07KT 9999 //////TCU 12/07 Q0996
EGKB
20.2nm E
EGKB 251350Z 18011KT 9999 -SHRA SCT030 09/08 Q0996
EGKK
23.1nm SE
EGKK 251350Z 20004KT 9999 SCT010 BKN015 11/09 Q0996

TAF

EGLL
TAF EGLL 251054Z 2512/2618 21012KT 9999 SCT035 TEMPO 2512/2520 6000 SHRA PROB30 TEMPO 2512/2518 22015G25KT 4000 +TSRA PROB40 TEMPO 2520/2524 7000 SHRA TEMPO 2610/2617 7000 SHRA PROB30 TEMPO 2610/2616 25015G25KT
EGWU
5.1nm N
TAF EGWU 251030Z 2512/2606 21012KT 9999 FEW025 PROB40 TEMPO 2512/2518 7000 SHRA PROB30 TEMPO 2512/2517 22015G25KT 4000 +SHRA SCT020CB
EGLF
16.0nm SW
TAF EGLF 251102Z 2512/2520 22008KT 9999 SCT030 TEMPO 2512/2520 7000 SHRA PROB30 TEMPO 2512/2520 22015G25KT 3000 +TSRA
EGLC
19.2nm NE
TAF EGLC 251102Z 2512/2521 23008KT 9999 SCT030 TEMPO 2512/2521 7000 SHRA PROB30 TEMPO 2512/2521 23015G25KT 4000 +SHRA
EGKB
20.2nm E
TAF EGKB 251102Z 2512/2521 22008KT 9999 SCT030 TEMPO 2512/2521 7000 SHRA PROB30 TEMPO 2512/2521 22015G25KT 4000 +SHRA
EGKK
23.1nm SE
TAF EGKK 251059Z 2512/2618 21010KT 9999 SCT030 TEMPO 2512/2522 6000 SHRA PROB30 TEMPO 2512/2520 22015G25KT 4000 +TSRA BKN014CB TEMPO 2610/2618 8000 SHRA
Safelog

 

Dauntless Aviation

© 2007-2020 Dauntless Aviation, all rights reserved
Information provided via PilotNav comes from a variety of official and unofficial data sources. As errors are possible, do not use PilotNav for primary flight planning purposes. Verify any information that you receive via PilotNav with current and canonical charts and other official documents. The material in this database is subject to database copyrights held by Dauntless Aviation and may not be copied without the express permission of Dauntless Aviation - licenses for use of part of all of this data are available for purchase; enquire via the Dauntless Aviation helpdesk. A number of mechanisms and markers exist in the database to protect against and identify infringement / copyright. Automated queries against this website are strictly prohibited, and all activity is logged and analyzed.